Time;durP1;ratioP1;P1;durP2;ratioP2;P2;SDS_P1;SDS_P2;PMS_P1;PMS_P2;Temp;Humidity;BMP_temperature;BMP_pressure;BME280_temperature;BME280_humidity;BME280_pressure;Samples;Min_cycle;Max_cycle;Signal;HPM_P1;HPM_P2
2021/12/23 00:01:58;;;;;;;44.17;29.42;;;;;;;-3.75;100.00;100613.88;5066577;28;20034;-58
2021/12/23 00:04:23;;;;;;;40.92;27.13;;;;;;;-3.70;100.00;100613.94;5064755;28;20127;-58
2021/12/23 00:06:49;;;;;;;43.28;27.40;;;;;;;-3.70;100.00;100609.66;5067271;28;20037;-58
2021/12/23 00:09:14;;;;;;;46.17;28.40;;;;;;;-3.68;100.00;100617.38;5066406;28;20028;-58
2021/12/23 00:11:40;;;;;;;45.80;28.92;;;;;;;-3.65;100.00;100617.44;5064648;28;20039;-58
2021/12/23 00:14:08;;;;;;;49.20;32.28;;;;;;;-3.63;100.00;100602.88;5066626;28;20088;-58
2021/12/23 00:16:48;;;;;;;45.50;30.90;;;;;;;-3.63;100.00;100592.63;5067562;28;20027;-58
2021/12/23 00:19:48;;;;;;;44.90;29.65;;;;;;;-3.63;100.00;100596.06;5068769;28;20134;-59
2021/12/23 00:24:52;;;;;;;37.60;27.85;;;;;;;-3.68;100.00;100591.69;5071357;28;20068;-59
2021/12/23 00:27:17;;;;;;;45.40;29.60;;;;;;;-3.67;100.00;100598.56;5071999;28;20027;-59
2021/12/23 00:29:43;;;;;;;80.72;38.25;;;;;;;-3.70;100.00;100594.25;5070068;28;20032;-59
2021/12/23 00:32:09;;;;;;;55.92;33.17;;;;;;;-3.88;100.00;100577.78;5070065;28;20023;-59
2021/12/23 00:34:35;;;;;;;44.90;27.80;;;;;;;-3.80;100.00;100596.72;5068991;28;20034;-59
2021/12/23 00:37:02;;;;;;;38.42;26.23;;;;;;;-3.85;100.00;100598.38;5067520;28;20880;-59
2021/12/23 00:39:29;;;;;;;45.42;27.83;;;;;;;-3.87;100.00;100579.53;5070266;28;20028;-59
2021/12/23 00:41:56;;;;;;;54.30;31.83;;;;;;;-3.88;100.00;100583.78;5068387;28;20027;-59
2021/12/23 00:44:21;;;;;;;72.13;38.38;;;;;;;-3.88;100.00;100585.50;5069869;28;20033;-59
2021/12/23 00:46:47;;;;;;;43.88;29.27;;;;;;;-3.90;100.00;100589.75;5068644;28;20065;-60
2021/12/23 00:49:12;;;;;;;39.58;27.42;;;;;;;-3.96;100.00;100579.44;5069571;28;20035;-58
2021/12/23 00:51:37;;;;;;;41.70;25.55;;;;;;;-4.00;100.00;100582.81;5069816;28;20108;-59
2021/12/23 00:54:06;;;;;;;42.83;26.98;;;;;;;-4.14;100.00;100573.25;5069631;28;20028;-59
2021/12/23 00:56:35;;;;;;;38.88;25.73;;;;;;;-4.18;100.00;100566.34;5068018;28;20131;-58
2021/12/23 00:59:10;;;;;;;38.67;26.20;;;;;;;-4.24;100.00;100556.03;5068005;28;20023;-58
2021/12/23 01:01:36;;;;;;;43.65;27.35;;;;;;;-4.29;100.00;100549.97;5069289;28;20448;-58
2021/12/23 01:04:01;;;;;;;40.60;26.17;;;;;;;-4.33;100.00;100535.44;5069641;28;20114;-58
2021/12/23 01:06:27;;;;;;;44.25;28.33;;;;;;;-4.32;100.00;100534.56;5069872;28;20036;-58
2021/12/23 01:08:52;;;;;;;53.50;30.73;;;;;;;-4.33;100.00;100538.00;5068414;28;20894;-58
2021/12/23 01:11:18;;;;;;;55.97;30.65;;;;;;;-4.36;100.00;100532.78;5068920;28;20030;-58
2021/12/23 01:13:58;;;;;;;48.63;29.30;;;;;;;-4.51;100.00;100501.00;5050229;28;20950;-58
2021/12/23 01:16:36;;;;;;;46.30;31.67;;;;;;;-4.46;100.00;100515.59;5047116;28;20140;-58
2021/12/23 01:19:03;;;;;;;46.05;29.13;;;;;;;-4.31;100.00;100531.16;5047650;28;20032;-60
2021/12/23 01:21:28;;;;;;;53.15;30.98;;;;;;;-4.29;100.00;100537.16;5046983;28;20150;-59
2021/12/23 01:23:56;;;;;;;46.47;29.75;;;;;;;-4.28;100.00;100535.47;5047135;28;20082;-58
2021/12/23 01:26:23;;;;;;;46.38;27.95;;;;;;;-4.30;100.00;100540.59;5049390;28;20135;-58
2021/12/23 01:28:52;;;;;;;45.88;30.05;;;;;;;-4.23;100.00;100555.19;5048567;28;20166;-59
2021/12/23 01:31:18;;;;;;;41.38;28.85;;;;;;;-4.23;100.00;100557.78;5048948;28;20143;-59
2021/12/23 01:33:43;;;;;;;45.03;29.90;;;;;;;-4.56;100.00;100493.25;5048125;28;20027;-59
2021/12/23 01:36:09;;;;;;;48.08;29.23;;;;;;;-4.27;100.00;100543.19;5048324;28;20024;-59
2021/12/23 01:38:34;;;;;;;45.60;29.75;;;;;;;-4.30;100.00;100540.59;5048702;28;20036;-59
2021/12/23 01:41:00;;;;;;;52.55;28.40;;;;;;;-4.64;100.00;100482.06;5049350;28;20035;-58
2021/12/23 01:43:25;;;;;;;42.88;28.05;;;;;;;-4.34;100.00;100532.81;5046898;28;20055;-58
2021/12/23 01:45:51;;;;;;;41.05;29.23;;;;;;;-4.35;100.00;100533.66;5048258;28;20020;-59
2021/12/23 01:48:18;;;;;;;45.40;28.25;;;;;;;-4.40;100.00;100523.38;5049549;28;20069;-59
2021/12/23 01:50:44;;;;;;;40.95;27.92;;;;;;;-4.42;100.00;100526.72;5048721;28;20131;-59
2021/12/23 01:53:09;;;;;;;44.90;29.40;;;;;;;-4.52;100.00;100520.63;5048215;28;20082;-58
2021/12/23 01:55:35;;;;;;;39.08;26.95;;;;;;;-4.48;100.00;100524.97;5048229;28;20025;-58
2021/12/23 01:58:02;;;;;;;51.95;28.42;;;;;;;-4.44;100.00;100529.28;5046274;28;20028;-59
2021/12/23 02:00:30;;;;;;;41.75;28.98;;;;;;;-4.40;100.00;100527.63;5048146;28;20031;-59
2021/12/23 02:02:57;;;;;;;49.58;29.08;;;;;;;-4.80;100.00;100447.69;5047853;28;20027;-59
2021/12/23 02:05:23;;;;;;;48.38;29.70;;;;;;;-4.30;100.00;100516.63;5046330;28;20032;-58
2021/12/23 02:07:49;;;;;;;43.83;27.02;;;;;;;-4.29;100.00;100511.50;5048979;28;20063;-58
2021/12/23 02:10:14;;;;;;;41.35;26.38;;;;;;;-4.32;100.00;100511.47;5047770;28;20032;-58
2021/12/23 02:12:43;;;;;;;41.03;26.95;;;;;;;-4.30;100.00;100507.25;5046498;28;20789;-58
2021/12/23 02:15:09;;;;;;;35.90;26.10;;;;;;;-4.52;100.00;100463.38;5046760;28;20087;-58
2021/12/23 02:17:36;;;;;;;43.42;27.52;;;;;;;-4.28;100.00;100504.69;5047965;28;20871;-58
2021/12/23 02:20:03;;;;;;;43.63;28.15;;;;;;;-4.25;100.00;100510.72;5046955;28;20032;-59
2021/12/23 02:22:29;;;;;;;45.15;29.48;;;;;;;-4.19;100.00;100505.63;5047539;28;20042;-58
2021/12/23 02:24:54;;;;;;;39.33;25.75;;;;;;;-4.18;100.00;100515.06;5047652;28;20024;-58
2021/12/23 02:27:20;;;;;;;37.75;28.08;;;;;;;-4.17;100.00;100514.22;5047566;28;20032;-58
2021/12/23 02:29:46;;;;;;;40.42;27.65;;;;;;;-4.13;100.00;100516.00;5046614;28;20040;-59
2021/12/23 02:32:12;;;;;;;48.80;28.27;;;;;;;-4.08;100.00;100520.28;5047775;28;20081;-59
2021/12/23 02:34:37;;;;;;;39.95;27.48;;;;;;;-4.07;100.00;100527.16;5046674;28;20032;-58
2021/12/23 02:37:03;;;;;;;43.58;26.85;;;;;;;-4.06;100.00;100523.75;5047905;28;20427;-58
2021/12/23 02:39:29;;;;;;;36.72;26.15;;;;;;;-4.18;100.00;100491.97;5046327;28;20031;-58
2021/12/23 02:41:55;;;;;;;41.53;26.70;;;;;;;-4.04;100.00;100504.94;5048330;28;20338;-58
2021/12/23 02:44:21;;;;;;;39.85;27.45;;;;;;;-4.00;100.00;100518.66;5045684;28;20044;-58
2021/12/23 02:46:47;;;;;;;45.05;27.35;;;;;;;-4.01;100.00;100511.81;5047589;28;20850;-57
2021/12/23 02:49:14;;;;;;;43.35;27.20;;;;;;;-3.99;100.00;100502.44;5048010;28;20055;-58
2021/12/23 02:51:39;;;;;;;41.83;28.75;;;;;;;-4.00;100.00;100498.16;5046048;28;20063;-58
2021/12/23 02:54:05;;;;;;;40.55;26.85;;;;;;;-4.01;100.00;100478.47;5047700;28;20020;-57
2021/12/23 02:56:30;;;;;;;41.97;27.27;;;;;;;-4.01;100.00;100473.31;5046645;28;20031;-58
2021/12/23 02:58:56;;;;;;;39.00;26.08;;;;;;;-4.04;100.00;100463.03;5044576;28;20028;-58
2021/12/23 03:01:23;;;;;;;44.70;26.75;;;;;;;-4.13;100.00;100448.44;5045537;28;20035;-57
2021/12/23 03:03:49;;;;;;;45.10;28.83;;;;;;;-3.98;100.00;100473.34;5045417;28;20032;-57
2021/12/23 03:06:18;;;;;;;40.97;27.73;;;;;;;-4.36;100.00;100409.72;5045883;28;20028;-58
2021/12/23 03:08:46;;;;;;;43.15;28.38;;;;;;;-3.90;100.00;100471.72;5046861;28;20059;-58
2021/12/23 03:11:16;;;;;;;42.55;27.42;;;;;;;-3.89;100.00;100458.06;5047045;28;20039;-58
2021/12/23 03:13:42;;;;;;;40.25;25.35;;;;;;;-3.89;100.00;100435.84;5046134;28;20028;-58
2021/12/23 03:16:08;;;;;;;45.78;28.15;;;;;;;-3.84;100.00;100440.97;5045475;28;20031;-58
2021/12/23 03:18:34;;;;;;;45.35;25.33;;;;;;;-3.83;100.00;100443.56;5047298;28;20127;-58
2021/12/23 03:21:00;;;;;;;37.60;26.35;;;;;;;-3.80;100.00;100441.03;5047133;28;20032;-57
2021/12/23 03:23:26;;;;;;;44.97;27.70;;;;;;;-3.77;100.00;100447.88;5046683;28;20024;-58
2021/12/23 03:25:51;;;;;;;39.65;27.70;;;;;;;-3.74;100.00;100443.63;5047054;28;20127;-58
2021/12/23 03:28:17;;;;;;;42.42;27.50;;;;;;;-3.71;100.00;100435.97;5044549;28;20904;-58
2021/12/23 03:30:43;;;;;;;41.88;26.38;;;;;;;-3.68;100.00;100432.53;5046766;28;20886;-58
2021/12/23 03:33:08;;;;;;;35.22;25.70;;;;;;;-4.24;100.00;100332.94;5047300;28;20030;-58
2021/12/23 03:35:34;;;;;;;41.67;26.13;;;;;;;-3.67;100.00;100413.75;5045629;28;20408;-58
2021/12/23 03:37:59;;;;;;;40.13;27.20;;;;;;;-3.70;100.00;100399.19;5045439;28;20134;-58
2021/12/23 03:40:25;;;;;;;50.25;28.30;;;;;;;-3.67;100.00;100398.34;5045404;28;20028;-58
2021/12/23 03:42:51;;;;;;;42.08;28.75;;;;;;;-3.63;100.00;100397.53;5047054;28;20903;-58
2021/12/23 03:45:17;;;;;;;51.22;31.42;;;;;;;-3.61;100.00;100409.50;5045507;28;20870;-58
2021/12/23 03:47:45;;;;;;;50.15;30.13;;;;;;;-3.54;100.00;100389.88;5046482;28;20877;-58
2021/12/23 03:50:10;;;;;;;48.45;31.63;;;;;;;-3.75;100.00;100354.66;5045200;28;20039;-58
2021/12/23 03:52:36;;;;;;;48.28;30.00;;;;;;;-3.44;100.00;100395.91;5049897;28;20328;-58
2021/12/23 03:55:03;;;;;;;43.50;29.27;;;;;;;-3.32;100.00;100409.72;5050935;28;20036;-58
2021/12/23 03:57:28;;;;;;;44.60;29.92;;;;;;;-3.33;100.00;100405.41;5047794;28;20909;-59
2021/12/23 03:59:53;;;;;;;47.97;30.20;;;;;;;-3.30;100.00;100405.44;5050459;28;20131;-59
2021/12/23 04:02:19;;;;;;;41.22;30.52;;;;;;;-3.31;100.00;100388.28;5049729;28;20043;-58
2021/12/23 04:04:44;;;;;;;46.10;30.13;;;;;;;-3.30;100.00;100378.88;5050477;28;20135;-58
2021/12/23 04:07:10;;;;;;;47.67;30.50;;;;;;;-3.27;100.00;100377.19;5032120;28;20052;-58
2021/12/23 04:09:35;;;;;;;45.75;30.02;;;;;;;-3.28;100.00;100378.03;5048712;28;20032;-58
2021/12/23 04:12:01;;;;;;;49.35;30.88;;;;;;;-3.25;100.00;100383.22;5050290;28;20028;-58
2021/12/23 04:14:26;;;;;;;48.92;31.20;;;;;;;-3.22;100.00;100367.81;5050657;28;20134;-58
2021/12/23 04:16:51;;;;;;;47.60;29.77;;;;;;;-3.28;100.00;100356.66;5050302;28;20138;-58
2021/12/23 04:19:17;;;;;;;50.08;30.58;;;;;;;-3.68;100.00;100305.06;5049463;28;20881;-58
2021/12/23 04:21:42;;;;;;;47.83;29.65;;;;;;;-3.39;100.00;100359.16;5049841;28;20036;-58
2021/12/23 04:24:09;;;;;;;49.45;30.08;;;;;;;-3.43;100.00;100356.56;5048536;28;20028;-58
2021/12/23 04:26:35;;;;;;;49.05;30.23;;;;;;;-3.45;100.00;100354.00;5049770;28;20155;-57
2021/12/23 04:29:01;;;;;;;49.38;30.90;;;;;;;-3.43;100.00;100360.00;5050043;28;20086;-57
2021/12/23 04:31:26;;;;;;;46.88;31.13;;;;;;;-3.77;100.00;100315.28;5049825;28;20916;-57
2021/12/23 04:33:53;;;;;;;51.13;32.17;;;;;;;-3.63;100.00;100341.91;5049584;28;20077;-57
2021/12/23 04:36:19;;;;;;;44.13;30.55;;;;;;;-3.54;100.00;100355.63;5049691;28;20131;-57
2021/12/23 04:38:45;;;;;;;50.17;31.65;;;;;;;-3.55;100.00;100349.66;5049464;28;20944;-57
2021/12/23 04:41:11;;;;;;;48.35;29.30;;;;;;;-3.54;100.00;100353.06;5031813;28;20032;-57
2021/12/23 04:43:37;;;;;;;54.25;33.63;;;;;;;-3.53;100.00;100344.53;5049439;28;20032;-57
2021/12/23 04:46:03;;;;;;;49.25;31.00;;;;;;;-3.61;100.00;100316.22;5050125;28;20020;-58
2021/12/23 04:48:28;;;;;;;54.78;33.10;;;;;;;-3.52;100.00;100321.44;5049399;28;20143;-58
2021/12/23 04:50:54;;;;;;;48.10;31.95;;;;;;;-3.40;100.00;100325.75;5049607;28;20533;-58
2021/12/23 04:53:20;;;;;;;50.67;31.92;;;;;;;-3.37;100.00;100316.34;5049505;28;20802;-58
2021/12/23 04:55:45;;;;;;;49.42;33.08;;;;;;;-3.34;100.00;100311.22;5048248;28;20024;-58
2021/12/23 04:58:10;;;;;;;49.90;30.48;;;;;;;-3.43;100.00;100295.78;5049547;28;20032;-58
2021/12/23 05:00:36;;;;;;;51.88;33.45;;;;;;;-3.26;100.00;100299.28;5047701;28;20027;-58
2021/12/23 05:03:02;;;;;;;50.80;32.78;;;;;;;-3.21;100.00;100302.72;5046397;28;20024;-58
2021/12/23 05:05:27;;;;;;;58.13;34.42;;;;;;;-3.12;100.00;100296.78;5047743;28;20032;-59
2021/12/23 05:07:53;;;;;;;56.75;33.35;;;;;;;-3.07;100.00;100287.34;5049196;28;20031;-58
2021/12/23 05:10:19;;;;;;;57.80;35.53;;;;;;;-3.08;100.00;100287.34;5048022;28;20082;-58
2021/12/23 05:12:46;;;;;;;56.15;34.75;;;;;;;-3.06;100.00;100270.22;5048095;28;20035;-58
2021/12/23 05:15:14;;;;;;;56.88;34.33;;;;;;;-2.87;100.00;100272.00;5048573;28;20036;-58
2021/12/23 05:17:40;;;;;;;56.80;34.80;;;;;;;-2.83;100.00;100268.56;5047722;28;20106;-58
2021/12/23 05:20:07;;;;;;;67.93;35.13;;;;;;;-2.76;100.00;100273.72;5048575;28;20032;-58
2021/12/23 05:22:33;;;;;;;54.90;34.92;;;;;;;-2.74;100.00;100258.31;5047883;28;20036;-58
2021/12/23 05:24:58;;;;;;;53.35;35.15;;;;;;;-2.71;100.00;100266.00;5050873;28;20052;-58
2021/12/23 05:27:24;;;;;;;58.25;34.53;;;;;;;-2.67;100.00;100255.72;5050365;28;20944;-58
2021/12/23 05:29:49;;;;;;;55.08;33.20;;;;;;;-2.63;100.00;100248.88;5050531;28;20125;-58
2021/12/23 05:32:15;;;;;;;61.92;36.15;;;;;;;-2.58;100.00;100248.03;5047747;28;20024;-58
2021/12/23 05:34:40;;;;;;;55.90;34.85;;;;;;;-2.52;100.00;100249.72;5048865;28;20912;-58
2021/12/23 05:37:05;;;;;;;55.58;34.60;;;;;;;-2.48;100.00;100246.31;5047146;28;20987;-58
2021/12/23 05:39:31;;;;;;;50.33;35.15;;;;;;;-2.45;100.00;100248.88;5048535;28;20028;-58
2021/12/23 05:41:56;;;;;;;52.45;33.72;;;;;;;-2.44;100.00;100242.88;5049297;28;20888;-58
2021/12/23 05:44:23;;;;;;;51.03;32.97;;;;;;;-2.52;100.00;100226.59;5047351;28;20096;-58
2021/12/23 05:46:48;;;;;;;58.83;34.15;;;;;;;-2.37;100.00;100254.88;5046818;28;20143;-58
2021/12/23 05:49:14;;;;;;;51.97;33.95;;;;;;;-2.36;100.00;100243.72;5046877;28;20032;-59
2021/12/23 05:51:39;;;;;;;46.88;31.38;;;;;;;-2.31;100.00;100239.44;5046864;28;20020;-58
2021/12/23 05:54:05;;;;;;;47.47;33.40;;;;;;;-2.28;100.00;100254.88;5046642;28;20109;-58
2021/12/23 05:56:31;;;;;;;51.65;31.55;;;;;;;-2.27;100.00;100236.00;5048237;28;20859;-58
2021/12/23 05:58:56;;;;;;;57.88;33.38;;;;;;;-2.24;100.00;100241.16;5046556;28;20083;-59
2021/12/23 06:01:21;;;;;;;51.17;32.90;;;;;;;-2.23;100.00;100242.84;5048032;28;20878;-58
2021/12/23 06:03:47;;;;;;;50.58;31.45;;;;;;;-2.21;100.00;100237.72;5048273;28;20078;-59
2021/12/23 06:06:14;;;;;;;51.80;31.90;;;;;;;-2.31;100.00;100212.84;5049008;28;21040;-58
2021/12/23 06:08:40;;;;;;;47.50;30.67;;;;;;;-2.32;100.00;100200.84;5046675;28;20086;-58
2021/12/23 06:11:06;;;;;;;50.92;32.65;;;;;;;-2.17;100.00;100232.56;5046983;28;20537;-59
2021/12/23 06:13:31;;;;;;;48.35;32.38;;;;;;;-2.17;100.00;100242.84;5048025;28;20142;-58
2021/12/23 06:15:56;;;;;;;49.63;31.05;;;;;;;-2.18;100.00;100235.13;5046592;28;20089;-58
2021/12/23 06:18:22;;;;;;;53.85;31.67;;;;;;;-2.17;100.00;100237.72;5047896;28;20028;-58
2021/12/23 06:20:47;;;;;;;52.80;31.77;;;;;;;-2.17;100.00;100237.72;5047351;28;20897;-59
2021/12/23 06:23:13;;;;;;;50.30;31.80;;;;;;;-2.16;100.00;100231.69;5046369;28;20858;-59
2021/12/23 06:25:38;;;;;;;55.00;31.30;;;;;;;-2.14;100.00;100231.69;5047734;28;20820;-58
2021/12/23 06:28:04;;;;;;;49.05;30.83;;;;;;;-2.11;100.00;100236.84;5048458;28;20966;-58
2021/12/23 06:30:30;;;;;;;47.35;30.20;;;;;;;-2.10;100.00;100231.69;5046982;28;20063;-58
2021/12/23 06:32:56;;;;;;;47.70;31.20;;;;;;;-2.07;100.00;100217.97;5046314;28;20954;-59
2021/12/23 06:35:27;;;;;;;51.03;31.50;;;;;;;-2.07;100.00;100212.81;5045826;28;20028;-58
2021/12/23 06:37:53;;;;;;;51.88;33.05;;;;;;;-2.02;100.00;100211.06;5046455;28;20039;-59
2021/12/23 06:40:20;;;;;;;50.13;31.70;;;;;;;-1.99;100.00;100205.91;5046127;28;20996;-58
2021/12/23 06:42:45;;;;;;;54.35;31.02;;;;;;;-1.94;100.00;100195.59;5044576;28;20035;-59
2021/12/23 06:45:11;;;;;;;52.78;31.67;;;;;;;-1.91;100.00;100196.47;5047404;28;20028;-58
2021/12/23 06:47:38;;;;;;;54.35;31.38;;;;;;;-1.90;100.00;100194.75;5048041;28;20023;-59
2021/12/23 06:50:05;;;;;;;53.78;31.23;;;;;;;-1.85;100.00;100195.56;5047358;28;20075;-58
2021/12/23 06:52:31;;;;;;;52.25;30.63;;;;;;;-1.81;100.00;100202.44;5046933;28;20035;-58
2021/12/23 06:54:57;;;;;;;49.67;30.20;;;;;;;-1.79;100.00;100198.97;5046008;28;20038;-58
2021/12/23 06:57:24;;;;;;;54.42;30.20;;;;;;;-1.91;100.00;100175.88;5045781;28;20031;-59
2021/12/23 06:59:49;;;;;;;47.30;30.70;;;;;;;-1.76;100.00;100192.97;5045446;28;20144;-59
2021/12/23 07:02:15;;;;;;;48.25;30.02;;;;;;;-1.75;100.00;100190.38;5045407;28;20846;-59
2021/12/23 07:04:42;;;;;;;49.70;30.90;;;;;;;-1.70;100.00;100182.66;5045741;28;20024;-59
2021/12/23 07:07:12;;;;;;;46.85;28.80;;;;;;;-1.67;100.00;100192.94;5058602;28;20051;-59
2021/12/23 07:09:42;;;;;;;44.95;30.33;;;;;;;-1.65;100.00;100186.91;5055083;28;20063;-59
2021/12/23 07:12:09;;;;;;;50.35;28.98;;;;;;;-1.83;100.00;100153.53;5064348;28;20034;-58
2021/12/23 07:14:35;;;;;;;44.97;28.55;;;;;;;-1.63;100.00;100190.34;5067305;28;20028;-59
2021/12/23 07:17:01;;;;;;;46.90;29.35;;;;;;;-1.58;100.00;100173.13;5066277;28;20944;-59
2021/12/23 07:19:26;;;;;;;46.78;27.38;;;;;;;-1.53;100.00;100186.00;5054969;28;20032;-58
2021/12/23 07:21:52;;;;;;;42.42;25.65;;;;;;;-1.52;100.00;100182.53;5046104;28;20032;-58
2021/12/23 07:24:17;;;;;;;48.38;27.10;;;;;;;-1.44;100.00;100200.56;5045966;28;20848;-58
2021/12/23 07:26:43;;;;;;;39.40;25.15;;;;;;;-1.41;100.00;100200.53;5047368;28;20028;-58
2021/12/23 07:29:09;;;;;;;46.95;27.30;;;;;;;-1.40;100.00;100199.69;5050573;28;20194;-58
2021/12/23 07:31:34;;;;;;;41.05;26.20;;;;;;;-1.39;100.00;100199.69;5050067;28;20036;-58
2021/12/23 07:33:59;;;;;;;46.03;27.38;;;;;;;-1.57;100.00;100161.13;5048463;28;20101;-58
2021/12/23 07:36:27;;;;;;;47.60;26.58;;;;;;;-1.36;100.00;100183.34;5050374;28;20047;-58
2021/12/23 07:38:54;;;;;;;46.67;27.45;;;;;;;-1.35;100.00;100190.22;5050093;28;20031;-58
2021/12/23 07:41:19;;;;;;;48.00;28.13;;;;;;;-1.32;100.00;100185.88;5047200;28;20082;-59
2021/12/23 07:43:57;;;;;;;45.30;25.60;;;;;;;-1.26;100.00;100193.59;5049713;28;20028;-58
2021/12/23 07:46:24;;;;;;;39.35;25.05;;;;;;;-1.40;100.00;100158.47;5062106;28;20091;-59
2021/12/23 07:48:49;;;;;;;44.17;27.73;;;;;;;-1.15;100.00;100183.22;5057200;28;20062;-59
2021/12/23 07:51:14;;;;;;;46.10;25.70;;;;;;;-1.15;100.00;100184.03;5050912;28;20024;-59
2021/12/23 07:53:40;;;;;;;44.78;25.40;;;;;;;-1.13;100.00;100184.91;5043043;28;20836;-59
2021/12/23 07:56:05;;;;;;;44.72;26.95;;;;;;;-1.18;100.00;100163.44;5051834;28;20032;-57
2021/12/23 07:58:31;;;;;;;40.70;25.48;;;;;;;-1.00;100.00;100177.09;5051650;28;20056;-58
2021/12/23 08:00:56;;;;;;;45.17;24.17;;;;;;;-1.01;100.00;100175.41;5050509;28;20822;-58
2021/12/23 08:03:22;;;;;;;42.97;25.52;;;;;;;-0.97;100.00;100177.91;5051030;28;20032;-58
2021/12/23 08:05:47;;;;;;;38.25;23.98;;;;;;;-0.99;100.00;100163.34;5050184;28;20862;-58
2021/12/23 08:08:13;;;;;;;37.55;22.73;;;;;;;-0.92;100.00;100165.00;5065225;28;20877;-58
2021/12/23 08:10:38;;;;;;;43.28;24.90;;;;;;;-0.88;100.00;100172.69;5070262;28;20126;-58
2021/12/23 08:13:04;;;;;;;38.22;23.95;;;;;;;-0.83;100.00;100175.25;5069750;28;20027;-58
2021/12/23 08:15:29;;;;;;;42.13;25.42;;;;;;;-0.80;100.00;100175.22;5070986;28;20119;-58
2021/12/23 08:17:54;;;;;;;43.70;26.70;;;;;;;-0.72;100.00;100178.59;5071693;28;20073;-58
2021/12/23 08:20:20;;;;;;;39.42;23.70;;;;;;;-0.65;100.00;100180.25;5070024;28;20040;-58
2021/12/23 08:22:45;;;;;;;33.97;23.15;;;;;;;-0.60;100.00;100169.03;5071070;28;20867;-58
2021/12/23 08:25:12;;;;;;;40.50;23.70;;;;;;;-0.52;100.00;100171.53;5053439;28;20031;-58
2021/12/23 08:27:39;;;;;;;36.85;23.60;;;;;;;-0.46;100.00;100163.72;5068983;28;20030;-58
2021/12/23 08:30:06;;;;;;;40.80;24.17;;;;;;;-0.41;100.00;100153.38;5070041;28;20040;-58
2021/12/23 08:32:32;;;;;;;43.22;23.40;;;;;;;-0.34;100.00;100166.22;5070281;28;20112;-58
2021/12/23 08:34:57;;;;;;;44.30;23.80;;;;;;;-0.27;100.00;100154.09;5071047;28;20848;-58
2021/12/23 08:37:22;;;;;;;38.92;23.30;;;;;;;-0.24;100.00;100143.75;5070096;28;20869;-58
2021/12/23 08:39:49;;;;;;;36.08;21.33;;;;;;;-0.11;100.00;100158.22;5070220;28;20086;-58
2021/12/23 08:42:14;;;;;;;44.08;23.08;;;;;;;-0.27;100.00;100116.22;5069653;28;20023;-58
2021/12/23 08:44:40;;;;;;;36.38;22.45;;;;;;;-0.12;100.00;100116.06;5069953;28;20092;-58
2021/12/23 08:47:06;;;;;;;34.90;21.13;;;;;;;0.16;100.00;100138.97;5069129;28;20030;-58
2021/12/23 08:49:31;;;;;;;37.63;22.00;;;;;;;0.13;100.00;100120.94;5069982;28;20026;-58
2021/12/23 08:51:57;;;;;;;37.92;21.35;;;;;;;0.32;100.00;100143.06;5052803;28;20024;-58
2021/12/23 08:54:22;;;;;;;30.30;19.65;;;;;;;0.38;100.00;100127.47;5059756;28;20023;-58
2021/12/23 08:56:48;;;;;;;34.78;20.60;;;;;;;0.49;100.00;100138.53;5064987;28;20822;-58
2021/12/23 08:59:13;;;;;;;36.33;21.08;;;;;;;0.57;100.00;100139.28;5054159;28;20129;-58
2021/12/23 09:01:41;;;;;;;30.38;18.20;;;;;;;0.64;100.00;100132.28;5048406;28;20031;-58
2021/12/23 09:04:06;;;;;;;35.20;20.05;;;;;;;0.69;100.00;100128.75;5046860;28;20039;-58
2021/12/23 09:06:32;;;;;;;32.05;20.27;;;;;;;0.80;100.00;100128.59;5047358;28;20032;-59
2021/12/23 09:08:58;;;;;;;32.83;18.65;;;;;;;0.89;100.00;100129.31;5047590;28;21015;-58
2021/12/23 09:11:23;;;;;;;35.83;20.17;;;;;;;0.94;100.00;100122.34;5049917;28;20028;-58
2021/12/23 09:13:49;;;;;;;31.98;19.23;;;;;;;1.03;100.00;100109.25;5048724;28;20031;-58
2021/12/23 09:16:15;;;;;;;32.10;18.27;;;;;;;1.10;100.00;100111.75;5047316;28;20135;-58
2021/12/23 09:18:40;;;;;;;26.10;17.10;;;;;;;1.17;100.00;100110.75;5046934;28;20059;-59
2021/12/23 09:21:06;;;;;;;29.67;17.42;;;;;;;1.27;100.00;100112.31;5048378;28;20035;-58
2021/12/23 09:23:31;;;;;;;28.58;17.23;;;;;;;1.37;100.00;100108.69;5047395;28;20994;-58
2021/12/23 09:25:57;;;;;;;27.65;17.58;;;;;;;1.49;100.00;100111.03;5046989;28;20040;-59
2021/12/23 09:28:38;;;;;;;31.33;16.98;;;;;;;1.47;100.00;100105.03;5048588;28;20136;-59
2021/12/23 09:33:47;;;;;;;25.52;16.80;;;;;;;1.67;100.00;100112.44;5046868;28;20140;-59
2021/12/23 09:36:13;;;;;;;27.98;17.52;;;;;;;1.85;100.00;100125.91;5047949;28;20795;-59
2021/12/23 09:38:39;;;;;;;33.65;17.67;;;;;;;1.95;100.00;100135.22;5046132;28;20142;-59
2021/12/23 09:41:09;;;;;;;26.65;15.60;;;;;;;2.01;100.00;100135.09;5046260;28;20059;-59
2021/12/23 09:43:36;;;;;;;30.60;17.70;;;;;;;1.80;100.00;100082.84;5046316;28;20854;-59
2021/12/23 09:46:02;;;;;;;24.73;15.20;;;;;;;2.02;100.00;100110.88;5047619;28;20035;-59
2021/12/23 09:48:28;;;;;;;24.35;16.73;;;;;;;2.25;100.00;100133.72;5046393;28;20913;-59
2021/12/23 09:50:55;;;;;;;26.52;15.43;;;;;;;2.30;100.00;100131.06;5046642;28;20081;-59
2021/12/23 09:53:22;;;;;;;25.92;16.02;;;;;;;2.37;100.00;100117.06;5027336;28;20081;-58
2021/12/23 09:55:50;;;;;;;25.35;16.20;;;;;;;2.46;100.00;100122.06;5035366;28;20134;-59
2021/12/23 09:58:15;;;;;;;22.23;14.23;;;;;;;2.56;100.00;100129.59;5068068;28;20023;-59
2021/12/23 10:00:45;;;;;;;30.00;15.82;;;;;;;2.62;100.00;100128.59;5067157;28;20135;-59
2021/12/23 10:03:13;;;;;;;24.52;15.52;;;;;;;2.62;100.00;100119.97;5067429;28;20113;-59
2021/12/23 10:05:39;;;;;;;28.10;15.75;;;;;;;2.57;100.00;100120.91;5067683;28;20027;-59
2021/12/23 10:08:06;;;;;;;23.33;15.20;;;;;;;2.58;100.00;100106.22;5067144;28;20066;-59
2021/12/23 10:10:38;;;;;;;20.23;14.52;;;;;;;2.56;100.00;100102.81;5068545;28;20030;-59
2021/12/23 10:38:24;;;;;;;20.77;14.35;;;;;;;2.95;100.00;100062.09;5055897;28;20105;-59
2021/12/23 10:40:53;;;;;;;26.42;15.85;;;;;;;3.03;100.00;100058.44;5054197;28;20090;-59
2021/12/23 10:43:32;;;;;;;25.17;14.52;;;;;;;3.12;100.00;100057.34;5055934;28;20076;-59
2021/12/23 10:46:13;;;;;;;24.83;15.82;;;;;;;3.17;100.00;100046.84;5051467;28;20051;-59
2021/12/23 10:49:15;;;;;;;24.50;14.25;;;;;;;3.17;100.00;100049.44;5046067;28;20032;-59
2021/12/23 10:51:57;;;;;;;25.02;13.93;;;;;;;3.16;100.00;100029.56;5046395;28;20036;-59
2021/12/23 10:58:02;;;;;;;27.52;15.73;;;;;;;3.15;100.00;100009.69;5060103;28;20032;-59
2021/12/23 11:00:23;;;;;;;23.55;15.07;;;;;;;3.20;100.00;100007.84;5064560;28;20039;-58
2021/12/23 11:03:17;;;;;;;24.00;16.70;;;;;;;3.25;100.00;100014.59;5065018;28;20023;-59
2021/12/23 11:05:54;;;;;;;25.55;15.57;;;;;;;3.30;100.00;100010.16;5064549;28;20091;-59
2021/12/23 11:08:33;;;;;;;27.23;15.27;;;;;;;3.37;100.00;100016.88;5066236;28;20032;-58
2021/12/23 11:41:17;;;;;;;21.75;15.27;;;;;;;4.31;100.00;99953.44;5063319;28;20197;-58
2021/12/23 11:46:16;;;;;;;22.25;14.45;;;;;;;4.35;100.00;99948.13;5065344;28;20043;-58
2021/12/23 11:48:45;;;;;;;23.38;14.50;;;;;;;4.40;100.00;99945.34;5065312;28;20035;-58
2021/12/23 11:51:21;;;;;;;25.35;15.52;;;;;;;4.46;100.00;99942.56;5064725;28;20029;-58
2021/12/23 11:53:49;;;;;;;25.88;15.63;;;;;;;4.47;100.00;99946.84;5065495;28;20038;-59
2021/12/23 11:56:17;;;;;;;22.60;16.00;;;;;;;4.60;100.00;99942.94;5065750;28;20027;-59
2021/12/23 11:58:45;;;;;;;21.20;15.30;;;;;;;4.76;100.00;99949.34;5064782;28;20024;-58
2021/12/23 12:01:14;;;;;;;23.95;14.88;;;;;;;4.80;100.00;99918.88;5065304;28;20088;-59
2021/12/23 12:03:54;;;;;;;24.92;15.65;;;;;;;5.01;100.00;99933.72;5066367;28;20032;-59
2021/12/23 12:06:31;;;;;;;21.20;14.75;;;;;;;5.01;100.00;99929.38;5066766;28;20035;-59
2021/12/23 12:09:26;;;;;;;25.45;15.35;;;;;;;5.03;100.00;99926.72;5048329;28;20024;-59
2021/12/23 12:12:09;;;;;;;20.30;13.63;;;;;;;5.03;100.00;99916.31;5066654;28;20142;-59